sensor_id;sensor_type;location;lat;lon;timestamp;pressure;altitude;pressure_sealevel;temperature;humidity
74778;BME280;63298;53.164;8.610;2022-09-14T00:01:38;100919.06;;;15.82;66.63
74778;BME280;63298;53.164;8.610;2022-09-14T00:04:11;100917.63;;;15.79;66.68
74778;BME280;63298;53.164;8.610;2022-09-14T00:06:37;100916.25;;;15.82;66.82
74778;BME280;63298;53.164;8.610;2022-09-14T00:09:03;100904.00;;;15.78;66.48
74778;BME280;63298;53.164;8.610;2022-09-14T00:11:31;100914.31;;;15.82;66.65
74778;BME280;63298;53.164;8.610;2022-09-14T00:13:58;100917.09;;;15.82;66.54
74778;BME280;63298;53.164;8.610;2022-09-14T00:16:26;100908.75;;;15.82;66.64
74778;BME280;63298;53.164;8.610;2022-09-14T00:18:54;100905.97;;;15.82;66.73
74778;BME280;63298;53.164;8.610;2022-09-14T00:21:21;100900.09;;;15.79;66.65
74778;BME280;63298;53.164;8.610;2022-09-14T00:23:46;100897.88;;;15.76;66.66
74778;BME280;63298;53.164;8.610;2022-09-14T00:26:15;100895.31;;;15.69;66.80
74778;BME280;63298;53.164;8.610;2022-09-14T00:28:52;100894.16;;;15.60;67.60
74778;BME280;63298;53.164;8.610;2022-09-14T00:31:19;100892.47;;;15.54;67.16
74778;BME280;63298;53.164;8.610;2022-09-14T00:33:45;100902.75;;;15.53;67.61
74778;BME280;63298;53.164;8.610;2022-09-14T00:36:15;100889.94;;;15.52;67.55
74778;BME280;63298;53.164;8.610;2022-09-14T00:38:41;100890.50;;;15.54;67.61
74778;BME280;63298;53.164;8.610;2022-09-14T00:41:11;100892.78;;;15.58;67.52
74778;BME280;63298;53.164;8.610;2022-09-14T00:46:34;100889.94;;;15.52;68.04
74778;BME280;63298;53.164;8.610;2022-09-14T00:49:00;100891.09;;;15.57;67.91
74778;BME280;63298;53.164;8.610;2022-09-14T00:51:29;100889.41;;;15.55;67.83
74778;BME280;63298;53.164;8.610;2022-09-14T00:53:55;100894.41;;;15.53;67.94
74778;BME280;63298;53.164;8.610;2022-09-14T00:56:21;100884.66;;;15.51;67.99
74778;BME280;63298;53.164;8.610;2022-09-14T00:58:48;100888.28;;;15.51;68.07
74778;BME280;63298;53.164;8.610;2022-09-14T01:01:15;100882.09;;;15.49;68.09
74778;BME280;63298;53.164;8.610;2022-09-14T01:03:40;100879.59;;;15.48;67.56
74778;BME280;63298;53.164;8.610;2022-09-14T01:06:17;100891.28;;;15.50;68.12
74778;BME280;63298;53.164;8.610;2022-09-14T01:08:47;100888.28;;;15.51;67.81
74778;BME280;63298;53.164;8.610;2022-09-14T01:16:44;100888.50;;;15.50;67.98
74778;BME280;63298;53.164;8.610;2022-09-14T01:19:32;100892.66;;;15.47;68.35
74778;BME280;63298;53.164;8.610;2022-09-14T01:22:13;100888.47;;;15.45;67.98
74778;BME280;63298;53.164;8.610;2022-09-14T01:24:48;100891.53;;;15.43;67.98
74778;BME280;63298;53.164;8.610;2022-09-14T01:27:24;100885.13;;;15.43;67.87
74778;BME280;63298;53.164;8.610;2022-09-14T01:30:00;100887.28;;;15.36;68.65
74778;BME280;63298;53.164;8.610;2022-09-14T01:32:52;100879.50;;;15.33;68.69
74778;BME280;63298;53.164;8.610;2022-09-14T01:35:30;100872.81;;;15.29;68.53
74778;BME280;63298;53.164;8.610;2022-09-14T01:38:01;100865.81;;;15.26;68.47
74778;BME280;63298;53.164;8.610;2022-09-14T01:40:41;100865.53;;;15.23;68.85
74778;BME280;63298;53.164;8.610;2022-09-14T01:43:18;100868.88;;;15.25;68.90
74778;BME280;63298;53.164;8.610;2022-09-14T01:45:48;100873.03;;;15.22;68.75
74778;BME280;63298;53.164;8.610;2022-09-14T01:48:18;100869.41;;;15.22;69.05
74778;BME280;63298;53.164;8.610;2022-09-14T01:50:49;100869.16;;;15.23;68.80
74778;BME280;63298;53.164;8.610;2022-09-14T01:53:36;100873.31;;;15.26;69.12
74778;BME280;63298;53.164;8.610;2022-09-14T01:56:31;100874.72;;;15.23;69.96
74778;BME280;63298;53.164;8.610;2022-09-14T01:59:14;100879.13;;;15.19;69.20
74778;BME280;63298;53.164;8.610;2022-09-14T02:01:55;100873.75;;;15.07;70.93
74778;BME280;63298;53.164;8.610;2022-09-14T02:04:33;100872.88;;;15.02;69.34
74778;BME280;63298;53.164;8.610;2022-09-14T02:07:00;100867.06;;;15.03;69.28
74778;BME280;63298;53.164;8.610;2022-09-14T02:09:26;100870.69;;;15.04;69.48
74778;BME280;63298;53.164;8.610;2022-09-14T02:11:53;100863.19;;;15.04;69.90
74778;BME280;63298;53.164;8.610;2022-09-14T02:14:20;100868.41;;;15.01;69.88
74778;BME280;63298;53.164;8.610;2022-09-14T02:16:46;100863.44;;;15.03;69.80
74778;BME280;63298;53.164;8.610;2022-09-14T02:19:12;100866.78;;;15.05;69.96
74778;BME280;63298;53.164;8.610;2022-09-14T02:21:38;100866.53;;;15.06;70.13
74778;BME280;63298;53.164;8.610;2022-09-14T02:24:04;100847.06;;;15.06;69.58
74778;BME280;63298;53.164;8.610;2022-09-14T02:26:29;100862.13;;;15.16;70.01
74778;BME280;63298;53.164;8.610;2022-09-14T02:28:55;100861.03;;;15.17;69.81
74778;BME280;63298;53.164;8.610;2022-09-14T02:34:43;100854.69;;;15.21;69.90
74778;BME280;63298;53.164;8.610;2022-09-14T02:40:26;100843.84;;;15.25;70.25
74778;BME280;63298;53.164;8.610;2022-09-14T02:48:19;100831.13;;;15.29;69.80
74778;BME280;63298;53.164;8.610;2022-09-14T02:56:09;100826.97;;;15.36;69.52
74778;BME280;63298;53.164;8.610;2022-09-14T02:58:41;100830.03;;;15.35;69.65
74778;BME280;63298;53.164;8.610;2022-09-14T03:01:08;100824.19;;;15.36;69.83
74778;BME280;63298;53.164;8.610;2022-09-14T03:03:34;100825.63;;;15.39;69.69
74778;BME280;63298;53.164;8.610;2022-09-14T03:05:59;100819.47;;;15.37;69.34
74778;BME280;63298;53.164;8.610;2022-09-14T03:08:26;100821.69;;;15.35;70.05
74778;BME280;63298;53.164;8.610;2022-09-14T03:10:52;100825.00;;;15.32;70.15
74778;BME280;63298;53.164;8.610;2022-09-14T03:13:19;100817.22;;;15.29;70.11
74778;BME280;63298;53.164;8.610;2022-09-14T03:15:44;100808.31;;;15.27;70.43
74778;BME280;63298;53.164;8.610;2022-09-14T03:18:09;100813.03;;;15.26;70.65
74778;BME280;63298;53.164;8.610;2022-09-14T03:20:35;100804.44;;;15.28;70.31
74778;BME280;63298;53.164;8.610;2022-09-14T03:23:02;100804.13;;;15.24;70.38
74778;BME280;63298;53.164;8.610;2022-09-14T03:25:28;100813.25;;;15.20;70.28
74778;BME280;63298;53.164;8.610;2022-09-14T03:27:56;100804.31;;;15.12;70.66
74778;BME280;63298;53.164;8.610;2022-09-14T03:30:22;100816.84;;;15.15;69.94
74778;BME280;63298;53.164;8.610;2022-09-14T03:32:47;100812.09;;;15.10;70.14
74778;BME280;63298;53.164;8.610;2022-09-14T03:35:13;100810.41;;;15.04;70.56
74778;BME280;63298;53.164;8.610;2022-09-14T03:37:40;100805.31;;;14.96;70.58
74778;BME280;63298;53.164;8.610;2022-09-14T03:40:07;100797.25;;;14.90;70.78
74778;BME280;63298;53.164;8.610;2022-09-14T03:42:33;100799.47;;;14.93;70.91
74778;BME280;63298;53.164;8.610;2022-09-14T03:44:59;100797.53;;;14.93;70.79
74778;BME280;63298;53.164;8.610;2022-09-14T03:47:25;100803.38;;;14.97;70.59
74778;BME280;63298;53.164;8.610;2022-09-14T03:49:51;100803.13;;;14.98;70.17
74778;BME280;63298;53.164;8.610;2022-09-14T03:52:19;100810.06;;;15.01;70.70
74778;BME280;63298;53.164;8.610;2022-09-14T03:54:44;100806.44;;;15.00;70.39
74778;BME280;63298;53.164;8.610;2022-09-14T03:57:10;100796.97;;;14.96;70.46
74778;BME280;63298;53.164;8.610;2022-09-14T03:59:35;100796.66;;;14.88;71.09
74778;BME280;63298;53.164;8.610;2022-09-14T04:02:01;100799.66;;;14.81;71.10
74778;BME280;63298;53.164;8.610;2022-09-14T04:04:27;100797.44;;;14.83;70.87
74778;BME280;63298;53.164;8.610;2022-09-14T04:06:53;100800.78;;;14.85;71.18
74778;BME280;63298;53.164;8.610;2022-09-14T04:09:18;100798.00;;;14.85;71.34
74778;BME280;63298;53.164;8.610;2022-09-14T04:11:44;100797.44;;;14.83;71.28
74778;BME280;63298;53.164;8.610;2022-09-14T04:14:10;100790.81;;;14.84;71.55
74778;BME280;63298;53.164;8.610;2022-09-14T04:16:36;100788.31;;;14.88;71.32
74778;BME280;63298;53.164;8.610;2022-09-14T04:19:02;100796.94;;;14.91;71.02
74778;BME280;63298;53.164;8.610;2022-09-14T04:21:27;100785.84;;;14.91;71.12
74778;BME280;63298;53.164;8.610;2022-09-14T04:23:54;100786.13;;;14.90;71.38
74778;BME280;63298;53.164;8.610;2022-09-14T04:26:21;100784.16;;;14.90;70.84
74778;BME280;63298;53.164;8.610;2022-09-14T04:28:46;100786.13;;;14.90;71.09
74778;BME280;63298;53.164;8.610;2022-09-14T04:31:12;100785.28;;;14.89;71.11
74778;BME280;63298;53.164;8.610;2022-09-14T04:33:40;100782.22;;;14.91;71.46
74778;BME280;63298;53.164;8.610;2022-09-14T04:36:08;100781.94;;;14.87;71.20
74778;BME280;63298;53.164;8.610;2022-09-14T04:38:35;100780.25;;;14.86;71.36
74778;BME280;63298;53.164;8.610;2022-09-14T04:41:04;100780.25;;;14.86;71.27
74778;BME280;63298;53.164;8.610;2022-09-14T04:43:31;100776.66;;;14.91;71.19
74778;BME280;63298;53.164;8.610;2022-09-14T04:46:23;100782.22;;;14.91;71.43
74778;BME280;63298;53.164;8.610;2022-09-14T04:48:49;100779.19;;;14.92;71.14
74778;BME280;63298;53.164;8.610;2022-09-14T04:51:17;100787.78;;;14.91;71.37
74778;BME280;63298;53.164;8.610;2022-09-14T04:53:44;100785.88;;;14.96;71.50
74778;BME280;63298;53.164;8.610;2022-09-14T04:56:11;100788.09;;;14.94;71.24
74778;BME280;63298;53.164;8.610;2022-09-14T04:58:40;100794.16;;;14.91;71.26
74778;BME280;63298;53.164;8.610;2022-09-14T05:01:10;100798.88;;;14.91;71.92
74778;BME280;63298;53.164;8.610;2022-09-14T05:03:37;100790.28;;;14.92;71.42
74778;BME280;63298;53.164;8.610;2022-09-14T05:06:09;100783.63;;;14.93;71.86
74778;BME280;63298;53.164;8.610;2022-09-14T05:08:35;100786.47;;;14.98;71.40
74778;BME280;63298;53.164;8.610;2022-09-14T05:11:00;100774.50;;;14.98;71.80
74778;BME280;63298;53.164;8.610;2022-09-14T05:13:25;100781.16;;;14.97;71.68
74778;BME280;63298;53.164;8.610;2022-09-14T05:15:50;100766.44;;;14.96;71.56
74778;BME280;63298;53.164;8.610;2022-09-14T05:18:16;100764.78;;;15.00;71.49
74778;BME280;63298;53.164;8.610;2022-09-14T05:20:42;100768.72;;;15.04;71.86
74778;BME280;63298;53.164;8.610;2022-09-14T05:23:07;100773.16;;;15.05;71.47
74778;BME280;63298;53.164;8.610;2022-09-14T05:25:33;100781.47;;;15.05;71.52
74778;BME280;63298;53.164;8.610;2022-09-14T05:27:58;100782.06;;;15.07;71.52
74778;BME280;63298;53.164;8.610;2022-09-14T05:30:23;100783.75;;;15.08;71.93
74778;BME280;63298;53.164;8.610;2022-09-14T05:32:49;100775.97;;;15.10;71.27
74778;BME280;63298;53.164;8.610;2022-09-14T05:35:14;100781.50;;;15.10;71.49
74778;BME280;63298;53.164;8.610;2022-09-14T05:37:39;100782.09;;;15.12;71.47
74778;BME280;63298;53.164;8.610;2022-09-14T05:40:05;100776.28;;;15.14;71.03
74778;BME280;63298;53.164;8.610;2022-09-14T05:42:31;100771.00;;;15.18;71.03
74778;BME280;63298;53.164;8.610;2022-09-14T05:44:56;100771.00;;;15.18;71.58
74778;BME280;63298;53.164;8.610;2022-09-14T05:47:21;100769.91;;;15.19;71.42
74778;BME280;63298;53.164;8.610;2022-09-14T05:49:46;100774.63;;;15.18;71.48
74778;BME280;63298;53.164;8.610;2022-09-14T05:52:12;100776.03;;;15.21;71.47
74778;BME280;63298;53.164;8.610;2022-09-14T05:54:37;100779.94;;;15.25;71.36
74778;BME280;63298;53.164;8.610;2022-09-14T05:57:02;100768.28;;;15.28;71.20
74778;BME280;63298;53.164;8.610;2022-09-14T05:59:28;100778.59;;;15.32;71.00
74778;BME280;63298;53.164;8.610;2022-09-14T06:01:53;100770.25;;;15.32;71.58
74778;BME280;63298;53.164;8.610;2022-09-14T06:04:18;100773.59;;;15.34;71.42
74778;BME280;63298;53.164;8.610;2022-09-14T06:06:44;100770.28;;;15.37;71.17
74778;BME280;63298;53.164;8.610;2022-09-14T06:09:09;100774.44;;;15.40;71.52
74778;BME280;63298;53.164;8.610;2022-09-14T06:11:34;100771.69;;;15.45;71.14
74778;BME280;63298;53.164;8.610;2022-09-14T06:13:59;100779.50;;;15.48;71.06
74778;BME280;63298;53.164;8.610;2022-09-14T06:16:26;100776.22;;;15.51;71.05
74778;BME280;63298;53.164;8.610;2022-09-14T06:18:54;100768.44;;;15.53;71.67
74778;BME280;63298;53.164;8.610;2022-09-14T06:21:20;100769.56;;;15.57;71.06
74778;BME280;63298;53.164;8.610;2022-09-14T06:23:47;100756.50;;;15.58;71.30
74778;BME280;63298;53.164;8.610;2022-09-14T06:26:12;100763.75;;;15.59;71.40
74778;BME280;63298;53.164;8.610;2022-09-14T06:28:38;100762.34;;;15.61;70.92
74778;BME280;63298;53.164;8.610;2022-09-14T06:31:04;100761.25;;;15.62;71.45
74778;BME280;63298;53.164;8.610;2022-09-14T06:33:30;100765.72;;;15.68;71.02
74778;BME280;63298;53.164;8.610;2022-09-14T06:35:57;100764.34;;;15.76;70.77
74778;BME280;63298;53.164;8.610;2022-09-14T06:38:24;100766.88;;;15.82;70.72
74778;BME280;63298;53.164;8.610;2022-09-14T06:40:58;100758.25;;;15.84;71.13
74778;BME280;63298;53.164;8.610;2022-09-14T06:43:25;100763.81;;;15.89;71.36
74778;BME280;63298;53.164;8.610;2022-09-14T06:48:23;100760.78;;;15.90;71.22
74778;BME280;63298;53.164;8.610;2022-09-14T06:50:49;100758.00;;;15.90;71.16
74778;BME280;63298;53.164;8.610;2022-09-14T06:53:14;100758.00;;;15.95;71.35
74778;BME280;63298;53.164;8.610;2022-09-14T06:55:39;100744.69;;;16.03;70.88
74778;BME280;63298;53.164;8.610;2022-09-14T06:58:05;100744.97;;;16.11;71.08
74778;BME280;63298;53.164;8.610;2022-09-14T07:00:30;100749.97;;;16.24;70.93
74778;BME280;63298;53.164;8.610;2022-09-14T07:02:57;100759.75;;;16.42;70.49
74778;BME280;63298;53.164;8.610;2022-09-14T07:05:23;100759.19;;;16.50;70.87
74778;BME280;63298;53.164;8.610;2022-09-14T07:07:51;100765.31;;;16.47;71.07
74778;BME280;63298;53.164;8.610;2022-09-14T07:10:16;100771.75;;;16.53;70.77
74778;BME280;63298;53.164;8.610;2022-09-14T07:12:42;100769.78;;;16.58;70.35
74778;BME280;63298;53.164;8.610;2022-09-14T07:15:07;100768.69;;;16.59;70.83
74778;BME280;63298;53.164;8.610;2022-09-14T07:17:33;100780.94;;;16.68;70.64
74778;BME280;63298;53.164;8.610;2022-09-14T07:19:58;100786.50;;;16.68;71.08
74778;BME280;63298;53.164;8.610;2022-09-14T07:22:23;100784.84;;;16.67;70.99
74778;BME280;63298;53.164;8.610;2022-09-14T07:24:49;100780.41;;;16.66;70.43
74778;BME280;63298;53.164;8.610;2022-09-14T07:27:14;100787.06;;;16.60;70.91
74778;BME280;63298;53.164;8.610;2022-09-14T07:29:39;100786.78;;;16.57;70.84
74778;BME280;63298;53.164;8.610;2022-09-14T07:32:05;100777.84;;;16.55;71.18
74778;BME280;63298;53.164;8.610;2022-09-14T07:34:30;100777.56;;;16.56;71.35
74778;BME280;63298;53.164;8.610;2022-09-14T07:36:55;100774.25;;;16.59;70.79
74778;BME280;63298;53.164;8.610;2022-09-14T07:39:20;100770.38;;;16.65;70.81
74778;BME280;63298;53.164;8.610;2022-09-14T07:41:46;100758.66;;;16.68;70.92
74778;BME280;63298;53.164;8.610;2022-09-14T07:44:14;100758.38;;;16.70;70.73
74778;BME280;63298;53.164;8.610;2022-09-14T07:46:41;100759.47;;;16.74;71.04
74778;BME280;63298;53.164;8.610;2022-09-14T07:49:07;100751.44;;;16.72;71.19
74778;BME280;63298;53.164;8.610;2022-09-14T07:51:33;100752.81;;;16.80;70.88
74778;BME280;63298;53.164;8.610;2022-09-14T07:53:59;100755.31;;;16.92;70.88
74778;BME280;63298;53.164;8.610;2022-09-14T07:56:25;100742.72;;;17.04;70.34
74778;BME280;63298;53.164;8.610;2022-09-14T07:58:55;100754.41;;;17.16;70.53
74778;BME280;63298;53.164;8.610;2022-09-14T08:01:20;100757.97;;;17.27;69.88
74778;BME280;63298;53.164;8.610;2022-09-14T08:03:46;100748.81;;;17.26;70.18
74778;BME280;63298;53.164;8.610;2022-09-14T08:06:22;100763.25;;;17.39;70.38
74778;BME280;63298;53.164;8.610;2022-09-14T08:08:50;100767.69;;;17.50;69.93
74778;BME280;63298;53.164;8.610;2022-09-14T08:11:22;100757.88;;;17.57;69.69
74778;BME280;63298;53.164;8.610;2022-09-14T08:13:59;100759.56;;;17.63;69.41
74778;BME280;63298;53.164;8.610;2022-09-14T08:16:26;100758.44;;;17.69;69.43
74778;BME280;63298;53.164;8.610;2022-09-14T08:18:54;100756.75;;;17.68;69.73
74778;BME280;63298;53.164;8.610;2022-09-14T08:21:20;100756.50;;;17.65;69.52
74778;BME280;63298;53.164;8.610;2022-09-14T08:23:45;100753.41;;;17.66;69.43
74778;BME280;63298;53.164;8.610;2022-09-14T08:26:14;100747.78;;;17.72;69.59
74778;BME280;63298;53.164;8.610;2022-09-14T08:28:40;100741.06;;;17.78;69.61
74778;BME280;63298;53.164;8.610;2022-09-14T08:31:15;100735.47;;;17.83;69.68
74778;BME280;63298;53.164;8.610;2022-09-14T08:33:46;100742.72;;;17.84;69.57
74778;BME280;63298;53.164;8.610;2022-09-14T08:36:15;100730.69;;;17.88;69.45
74778;BME280;63298;53.164;8.610;2022-09-14T08:38:40;100726.75;;;17.94;69.22
74778;BME280;63298;53.164;8.610;2022-09-14T08:43:53;100721.28;;;18.18;69.23
74778;BME280;63298;53.164;8.610;2022-09-14T08:46:28;100732.69;;;18.22;68.91
74778;BME280;63298;53.164;8.610;2022-09-14T08:48:54;100727.63;;;18.29;69.14
74778;BME280;63298;53.164;8.610;2022-09-14T08:51:20;100728.09;;;18.36;68.85
74778;BME280;63298;53.164;8.610;2022-09-14T08:53:45;100731.09;;;18.54;68.61
74778;BME280;63298;53.164;8.610;2022-09-14T08:56:23;100720.88;;;18.69;68.66
74778;BME280;63298;53.164;8.610;2022-09-14T08:59:01;100719.06;;;18.83;68.03
74778;BME280;63298;53.164;8.610;2022-09-14T09:04:27;100717.19;;;19.02;67.74
74778;BME280;63298;53.164;8.610;2022-09-14T09:09:39;100720.88;;;19.21;67.31
74778;BME280;63298;53.164;8.610;2022-09-14T09:12:12;100713.97;;;19.37;66.60
74778;BME280;63298;53.164;8.610;2022-09-14T09:14:49;100716.69;;;19.48;64.81
74778;BME280;63298;53.164;8.610;2022-09-14T09:17:21;100717.91;;;19.60;65.05
74778;BME280;63298;53.164;8.610;2022-09-14T09:19:57;100717.56;;;19.67;62.85
74778;BME280;63298;53.164;8.610;2022-09-14T09:22:24;100721.41;;;19.71;64.55
74778;BME280;63298;53.164;8.610;2022-09-14T09:24:53;100720.72;;;19.79;64.36
74778;BME280;63298;53.164;8.610;2022-09-14T09:27:19;100715.06;;;19.84;63.73
74778;BME280;63298;53.164;8.610;2022-09-14T09:29:45;100727.34;;;19.88;63.42
74778;BME280;63298;53.164;8.610;2022-09-14T09:32:22;100715.81;;;19.90;61.72
74778;BME280;63298;53.164;8.610;2022-09-14T09:34:49;100708.09;;;20.00;62.93
74778;BME280;63298;53.164;8.610;2022-09-14T09:37:17;100693.94;;;20.10;62.88
74778;BME280;63298;53.164;8.610;2022-09-14T09:39:43;100701.72;;;20.13;62.07
74778;BME280;63298;53.164;8.610;2022-09-14T09:42:22;100715.28;;;20.06;61.84
74778;BME280;63298;53.164;8.610;2022-09-14T09:45:02;100708.47;;;19.94;60.73
74778;BME280;63298;53.164;8.610;2022-09-14T09:47:31;100709.63;;;19.93;60.85
74778;BME280;63298;53.164;8.610;2022-09-14T09:50:04;100705.66;;;19.94;59.53
74778;BME280;63298;53.164;8.610;2022-09-14T09:52:30;100697.28;;;20.12;60.64
74778;BME280;63298;53.164;8.610;2022-09-14T09:54:57;100694.31;;;20.22;59.33
74778;BME280;63298;53.164;8.610;2022-09-14T09:57:34;100686.72;;;20.23;56.64
74778;BME280;63298;53.164;8.610;2022-09-14T10:02:38;100685.91;;;20.41;59.71
74778;BME280;63298;53.164;8.610;2022-09-14T10:10:41;100680.25;;;20.60;58.31
74778;BME280;63298;53.164;8.610;2022-09-14T10:13:17;100683.44;;;20.53;57.93
74778;BME280;63298;53.164;8.610;2022-09-14T10:15:45;100678.63;;;20.40;58.76
74778;BME280;63298;53.164;8.610;2022-09-14T10:20:40;100671.28;;;20.25;59.40
74778;BME280;63298;53.164;8.610;2022-09-14T10:23:20;100681.41;;;20.08;59.02
74778;BME280;63298;53.164;8.610;2022-09-14T10:25:52;100671.06;;;20.03;59.00
74778;BME280;63298;53.164;8.610;2022-09-14T10:28:32;100672.44;;;20.06;59.51
74778;BME280;63298;53.164;8.610;2022-09-14T10:33:29;100654.81;;;20.05;59.89
74778;BME280;63298;53.164;8.610;2022-09-14T10:39:31;100662.97;;;20.20;59.13
74778;BME280;63298;53.164;8.610;2022-09-14T10:50:23;100677.16;;;20.75;58.64
74778;BME280;63298;53.164;8.610;2022-09-14T11:00:57;100671.38;;;20.85;55.83
74778;BME280;63298;53.164;8.610;2022-09-14T11:03:52;100662.56;;;21.05;54.65
74778;BME280;63298;53.164;8.610;2022-09-14T11:08:58;100649.88;;;21.22;55.54
74778;BME280;63298;53.164;8.610;2022-09-14T11:14:09;100634.72;;;21.23;55.39
74778;BME280;63298;53.164;8.610;2022-09-14T11:27:35;100645.63;;;21.24;55.51
74778;BME280;63298;53.164;8.610;2022-09-14T11:30:16;100643.47;;;21.21;55.70
74778;BME280;63298;53.164;8.610;2022-09-14T11:32:53;100639.63;;;21.31;55.51
74778;BME280;63298;53.164;8.610;2022-09-14T11:35:35;100633.25;;;21.39;53.22
74778;BME280;63298;53.164;8.610;2022-09-14T11:38:10;100639.91;;;21.43;54.25
74778;BME280;63298;53.164;8.610;2022-09-14T11:40:44;100646.16;;;21.40;54.81
74778;BME280;63298;53.164;8.610;2022-09-14T11:43:45;100646.16;;;21.40;54.68
74778;BME280;63298;53.164;8.610;2022-09-14T11:46:16;100640.72;;;21.43;53.71
74778;BME280;63298;53.164;8.610;2022-09-14T11:49:10;100643.63;;;21.52;54.05
74778;BME280;63298;53.164;8.610;2022-09-14T11:51:45;100638.00;;;21.66;54.51
74778;BME280;63298;53.164;8.610;2022-09-14T11:54:17;100630.34;;;21.80;54.51
74778;BME280;63298;53.164;8.610;2022-09-14T11:56:47;100625.19;;;21.95;53.98
74778;BME280;63298;53.164;8.610;2022-09-14T12:05:22;100637.00;;;21.84;52.04
74778;BME280;63298;53.164;8.610;2022-09-14T12:15:31;100640.50;;;21.53;53.04
74778;BME280;63298;53.164;8.610;2022-09-14T12:20:44;100633.03;;;21.49;53.63
74778;BME280;63298;53.164;8.610;2022-09-14T12:35:59;100625.78;;;21.34;52.42
74778;BME280;63298;53.164;8.610;2022-09-14T12:59:47;100621.91;;;20.62;56.62
74778;BME280;63298;53.164;8.610;2022-09-14T13:05:16;100619.13;;;20.76;55.79
74778;BME280;63298;53.164;8.610;2022-09-14T13:07:42;100623.44;;;20.54;55.97
74778;BME280;63298;53.164;8.610;2022-09-14T13:10:35;100614.81;;;20.51;56.61
74778;BME280;63298;53.164;8.610;2022-09-14T13:13:05;100621.56;;;20.50;56.13
74778;BME280;63298;53.164;8.610;2022-09-14T13:15:45;100618.56;;;20.46;56.37
74778;BME280;63298;53.164;8.610;2022-09-14T13:20:52;100617.53;;;20.42;56.21
74778;BME280;63298;53.164;8.610;2022-09-14T13:23:23;100609.09;;;20.42;56.20
74778;BME280;63298;53.164;8.610;2022-09-14T13:25:50;100609.41;;;20.41;56.27
74778;BME280;63298;53.164;8.610;2022-09-14T13:28:18;100616.78;;;20.37;55.70
74778;BME280;63298;53.164;8.610;2022-09-14T13:30:53;100608.88;;;20.39;55.90
74778;BME280;63298;53.164;8.610;2022-09-14T13:33:18;100596.69;;;20.30;55.92
74778;BME280;63298;53.164;8.610;2022-09-14T13:35:55;100599.78;;;20.28;55.73
74778;BME280;63298;53.164;8.610;2022-09-14T13:38:23;100599.72;;;20.33;55.76
74778;BME280;63298;53.164;8.610;2022-09-14T13:40:51;100593.28;;;20.33;55.80
74778;BME280;63298;53.164;8.610;2022-09-14T13:43:19;100589.50;;;20.42;55.35
74778;BME280;63298;53.164;8.610;2022-09-14T13:45:47;100590.84;;;20.45;55.68
74778;BME280;63298;53.164;8.610;2022-09-14T13:48:14;100587.84;;;20.55;55.37
74778;BME280;63298;53.164;8.610;2022-09-14T13:50:43;100585.41;;;20.35;55.14
74778;BME280;63298;53.164;8.610;2022-09-14T13:53:36;100589.16;;;20.44;55.62
74778;BME280;63298;53.164;8.610;2022-09-14T13:56:25;100579.91;;;20.43;54.35
74778;BME280;63298;53.164;8.610;2022-09-14T13:59:13;100580.47;;;20.59;54.69
74778;BME280;63298;53.164;8.610;2022-09-14T14:04:37;100573.00;;;20.54;54.58
74778;BME280;63298;53.164;8.610;2022-09-14T14:09:50;100570.81;;;20.65;54.75
74778;BME280;63298;53.164;8.610;2022-09-14T14:12:23;100563.13;;;20.71;54.49
74778;BME280;63298;53.164;8.610;2022-09-14T14:15:01;100556.81;;;20.65;53.38
74778;BME280;63298;53.164;8.610;2022-09-14T14:19:53;100550.34;;;20.78;54.33
74778;BME280;63298;53.164;8.610;2022-09-14T14:22:25;100548.38;;;20.92;53.31
74778;BME280;63298;53.164;8.610;2022-09-14T14:24:52;100543.19;;;20.99;53.80
74778;BME280;63298;53.164;8.610;2022-09-14T14:27:42;100534.22;;;21.11;53.46
74778;BME280;63298;53.164;8.610;2022-09-14T14:30:17;100535.88;;;21.12;52.67
74778;BME280;63298;53.164;8.610;2022-09-14T14:32:47;100533.09;;;21.26;53.40
74778;BME280;63298;53.164;8.610;2022-09-14T14:35:18;100526.53;;;21.30;52.41
74778;BME280;63298;53.164;8.610;2022-09-14T14:37:44;100516.25;;;21.26;52.63
74778;BME280;63298;53.164;8.610;2022-09-14T14:40:11;100523.50;;;21.13;52.86
74778;BME280;63298;53.164;8.610;2022-09-14T14:42:36;100533.63;;;21.00;53.02
74778;BME280;63298;53.164;8.610;2022-09-14T14:45:02;100534.88;;;20.94;52.80
74778;BME280;63298;53.164;8.610;2022-09-14T14:47:27;100528.94;;;20.82;53.17
74778;BME280;63298;53.164;8.610;2022-09-14T14:49:52;100529.06;;;20.77;53.57
74778;BME280;63298;53.164;8.610;2022-09-14T14:52:18;100524.63;;;20.76;53.08
74778;BME280;63298;53.164;8.610;2022-09-14T14:54:43;100530.84;;;20.73;53.04
74778;BME280;63298;53.164;8.610;2022-09-14T14:57:08;100522.41;;;20.73;52.91
74778;BME280;63298;53.164;8.610;2022-09-14T14:59:33;100518.19;;;20.76;53.04
74778;BME280;63298;53.164;8.610;2022-09-14T15:01:59;100516.41;;;20.80;53.39
74778;BME280;63298;53.164;8.610;2022-09-14T15:04:24;100524.78;;;20.93;53.03
74778;BME280;63298;53.164;8.610;2022-09-14T15:06:50;100516.91;;;20.95;52.95
74778;BME280;63298;53.164;8.610;2022-09-14T15:09:21;100514.41;;;20.94;52.51
74778;BME280;63298;53.164;8.610;2022-09-14T15:11:48;100510.03;;;21.01;52.45
74778;BME280;63298;53.164;8.610;2022-09-14T15:14:15;100502.31;;;21.07;52.62
74778;BME280;63298;53.164;8.610;2022-09-14T15:16:41;100514.94;;;20.96;52.16
74778;BME280;63298;53.164;8.610;2022-09-14T15:19:07;100512.34;;;20.86;52.87
74778;BME280;63298;53.164;8.610;2022-09-14T15:21:33;100509.44;;;20.91;52.71
74778;BME280;63298;53.164;8.610;2022-09-14T15:23:58;100511.72;;;20.89;52.40
74778;BME280;63298;53.164;8.610;2022-09-14T15:26:26;100502.38;;;20.80;52.36
74778;BME280;63298;53.164;8.610;2022-09-14T15:28:52;100503.97;;;20.72;52.80
74778;BME280;63298;53.164;8.610;2022-09-14T15:31:17;100503.22;;;20.66;52.95